Time;durP1;ratioP1;P1;durP2;ratioP2;P2;SDS_P1;SDS_P2;PMS_P1;PMS_P2;Temp;Humidity;BMP_temperature;BMP_pressure;BME280_temperature;BME280_humidity;BME280_pressure;Samples;Min_cycle;Max_cycle;Signal;HPM_P1;HPM_P2
2023/07/12 00:00:58;;;;;;;4.22;1.95;;;;;;;;;;5144884;27;20435;-68
2023/07/12 00:03:25;;;;;;;2.88;2.25;;;;;;;;;;5153208;27;20270;-68
2023/07/12 00:05:51;;;;;;;3.15;2.08;;;;;;;;;;5156309;27;20435;-68
2023/07/12 00:08:18;;;;;;;2.35;1.80;;;;;;;;;;5156959;27;20546;-68
2023/07/12 00:10:45;;;;;;;2.30;2.10;;;;;;;;;;5154825;27;20197;-68
2023/07/12 00:13:11;;;;;;;5.45;2.03;;;;;;;;;;5153239;27;20198;-68
2023/07/12 00:15:38;;;;;;;3.65;1.77;;;;;;;;;;5153978;27;20559;-68
2023/07/12 00:18:12;;;;;;;7.47;2.20;;;;;;;;;;5156517;27;20214;-68
2023/07/12 00:20:38;;;;;;;2.05;1.77;;;;;;;;;;5155694;27;20218;-68
2023/07/12 00:23:04;;;;;;;2.22;2.13;;;;;;;;;;5152725;27;20236;-68
2023/07/12 00:25:31;;;;;;;2.05;1.77;;;;;;;;;;5153137;27;20245;-68
2023/07/12 00:27:58;;;;;;;2.50;1.73;;;;;;;;;;5144531;27;20211;-68
2023/07/12 00:30:27;;;;;;;4.07;2.10;;;;;;;;;;5152903;27;20235;-68
2023/07/12 00:32:54;;;;;;;4.78;1.95;;;;;;;;;;5155653;27;20498;-68
2023/07/12 00:35:23;;;;;;;2.15;2.00;;;;;;;;;;5156390;27;20197;-68
2023/07/12 00:37:50;;;;;;;2.25;1.80;;;;;;;;;;5153606;27;20220;-68
2023/07/12 00:40:34;;;;;;;4.90;1.85;;;;;;;;;;5153137;27;20243;-68
2023/07/12 00:43:05;;;;;;;1.67;1.58;;;;;;;;;;5140442;27;20194;-68
2023/07/12 00:45:32;;;;;;;7.32;2.33;;;;;;;;;;5152693;27;20435;-68
2023/07/12 00:47:58;;;;;;;2.72;2.00;;;;;;;;;;5152648;27;20227;-68
2023/07/12 00:50:26;;;;;;;2.10;2.00;;;;;;;;;;5152479;27;20501;-68
2023/07/12 00:52:53;;;;;;;3.17;1.88;;;;;;;;;;5155038;27;20387;-68
2023/07/12 00:55:38;;;;;;;2.30;2.13;;;;;;;;;;5155672;27;20242;-68
2023/07/12 00:58:04;;;;;;;2.17;2.05;;;;;;;;;;5144794;27;20213;-68
2023/07/12 01:00:30;;;;;;;2.78;2.53;;;;;;;;;;5152305;27;20243;-68
2023/07/12 01:02:57;;;;;;;4.35;3.00;;;;;;;;;;5152548;27;20198;-68
2023/07/12 01:05:24;;;;;;;4.63;2.60;;;;;;;;;;5152545;27;20243;-68
2023/07/12 01:07:51;;;;;;;3.42;2.55;;;;;;;;;;5154396;27;20558;-68
2023/07/12 01:10:18;;;;;;;5.22;2.40;;;;;;;;;;5155788;27;20201;-68
2023/07/12 01:12:44;;;;;;;4.78;1.98;;;;;;;;;;5154377;27;20197;-68
2023/07/12 01:15:11;;;;;;;3.05;1.80;;;;;;;;;;5152406;27;20198;-68
2023/07/12 01:17:38;;;;;;;2.97;1.92;;;;;;;;;;5152292;27;20206;-68
2023/07/12 01:20:04;;;;;;;2.65;1.88;;;;;;;;;;5155736;27;20193;-68
2023/07/12 01:22:32;;;;;;;1.90;1.80;;;;;;;;;;5155267;27;20204;-68
2023/07/12 01:24:58;;;;;;;2.78;1.70;;;;;;;;;;5152450;27;20194;-68
2023/07/12 01:27:25;;;;;;;1.85;1.35;;;;;;;;;;5151871;27;20451;-68
2023/07/12 01:29:52;;;;;;;1.50;1.50;;;;;;;;;;5153619;27;20209;-68
2023/07/12 01:32:18;;;;;;;3.33;1.63;;;;;;;;;;5155283;27;20197;-68
2023/07/12 01:34:45;;;;;;;6.43;1.50;;;;;;;;;;5154002;27;20208;-68
2023/07/12 01:37:11;;;;;;;3.75;1.80;;;;;;;;;;5151792;27;20205;-68
2023/07/12 01:39:39;;;;;;;2.53;1.90;;;;;;;;;;5151641;27;20220;-68
2023/07/12 01:42:05;;;;;;;2.08;1.88;;;;;;;;;;5155137;27;20193;-68
2023/07/12 01:44:32;;;;;;;1.67;1.58;;;;;;;;;;5155573;27;20224;-68
2023/07/12 01:46:58;;;;;;;1.85;1.75;;;;;;;;;;5152162;27;20201;-68
2023/07/12 01:49:24;;;;;;;1.85;1.75;;;;;;;;;;5151717;27;20239;-68
2023/07/12 01:51:51;;;;;;;4.97;1.98;;;;;;;;;;5153437;27;20239;-68
2023/07/12 01:54:17;;;;;;;1.83;1.73;;;;;;;;;;5154922;27;20402;-68
2023/07/12 01:56:44;;;;;;;3.80;2.00;;;;;;;;;;5154327;27;20196;-68
2023/07/12 01:59:11;;;;;;;3.90;1.98;;;;;;;;;;5151363;27;20214;-68
2023/07/12 02:01:37;;;;;;;2.42;2.22;;;;;;;;;;5151532;27;20198;-68
2023/07/12 02:04:03;;;;;;;4.65;2.38;;;;;;;;;;5142798;27;20194;-68
2023/07/12 02:06:30;;;;;;;5.22;2.22;;;;;;;;;;5151471;27;20250;-68
2023/07/12 02:08:56;;;;;;;3.10;2.25;;;;;;;;;;5157708;27;20206;-68
2023/07/12 02:11:22;;;;;;;2.70;2.20;;;;;;;;;;5159277;27;20405;-68
2023/07/12 02:13:50;;;;;;;7.38;2.40;;;;;;;;;;5157422;27;20426;-68
2023/07/12 02:16:16;;;;;;;3.13;2.10;;;;;;;;;;5155587;27;20201;-68
2023/07/12 02:18:42;;;;;;;2.88;2.10;;;;;;;;;;5155854;27;20249;-68
2023/07/12 02:21:08;;;;;;;2.97;2.03;;;;;;;;;;5158894;27;20414;-68
2023/07/12 02:23:35;;;;;;;2.40;2.20;;;;;;;;;;5158869;27;20516;-68
2023/07/12 02:26:01;;;;;;;5.40;2.40;;;;;;;;;;5155821;27;20502;-68
2023/07/12 02:28:28;;;;;;;4.90;2.30;;;;;;;;;;5155218;27;20222;-68
2023/07/12 02:30:55;;;;;;;4.03;1.98;;;;;;;;;;5157428;27;20561;-68
2023/07/12 02:33:22;;;;;;;3.20;2.08;;;;;;;;;;5158513;27;20497;-68
2023/07/12 02:35:50;;;;;;;4.00;1.90;;;;;;;;;;5157158;27;20202;-68
2023/07/12 02:38:16;;;;;;;6.65;1.98;;;;;;;;;;5155255;27;20222;-68
2023/07/12 02:40:43;;;;;;;2.50;2.20;;;;;;;;;;5155758;27;20202;-68
2023/07/12 02:43:09;;;;;;;2.80;1.92;;;;;;;;;;5158873;27;20203;-68
2023/07/12 02:45:35;;;;;;;1.98;1.88;;;;;;;;;;5158604;27;20197;-68
2023/07/12 02:48:03;;;;;;;4.00;1.90;;;;;;;;;;5155295;27;20194;-68
2023/07/12 02:50:29;;;;;;;2.15;1.95;;;;;;;;;;5155043;27;20205;-68
2023/07/12 02:52:55;;;;;;;4.75;2.40;;;;;;;;;;5156966;27;20515;-68
2023/07/12 02:55:22;;;;;;;5.55;2.30;;;;;;;;;;5158476;27;20198;-68
2023/07/12 02:57:48;;;;;;;3.40;2.03;;;;;;;;;;5157209;27;20202;-68
2023/07/12 03:00:15;;;;;;;2.90;2.00;;;;;;;;;;5153895;27;20275;-68
2023/07/12 03:02:41;;;;;;;4.68;2.25;;;;;;;;;;5153166;27;20210;-68
2023/07/12 03:05:09;;;;;;;3.08;2.15;;;;;;;;;;5156828;27;20205;-68
2023/07/12 03:07:35;;;;;;;4.35;2.17;;;;;;;;;;5156762;27;20197;-68
2023/07/12 03:10:01;;;;;;;3.70;1.80;;;;;;;;;;5153921;27;20453;-68
2023/07/12 03:12:28;;;;;;;3.25;2.17;;;;;;;;;;5153179;27;20208;-68
2023/07/12 03:14:54;;;;;;;5.93;1.92;;;;;;;;;;5155133;27;20204;-68
2023/07/12 03:17:21;;;;;;;3.05;2.30;;;;;;;;;;5156743;27;20241;-68
2023/07/12 03:19:47;;;;;;;3.33;2.30;;;;;;;;;;5155404;27;20261;-68
2023/07/12 03:22:14;;;;;;;2.63;2.13;;;;;;;;;;5153089;27;20198;-68
2023/07/12 03:24:41;;;;;;;2.15;1.98;;;;;;;;;;5153324;27;20371;-68
2023/07/12 03:27:07;;;;;;;5.32;2.13;;;;;;;;;;5153162;27;20224;-68
2023/07/12 03:29:33;;;;;;;2.72;2.28;;;;;;;;;;5153113;27;20194;-68
2023/07/12 03:31:59;;;;;;;4.43;2.30;;;;;;;;;;5155272;27;20249;-68
2023/07/12 03:34:26;;;;;;;6.22;2.53;;;;;;;;;;5156679;27;20427;-68
2023/07/12 03:36:52;;;;;;;4.97;2.33;;;;;;;;;;5155015;27;20550;-68
2023/07/12 03:39:20;;;;;;;7.50;2.90;;;;;;;;;;5158088;27;20541;-68
2023/07/12 03:41:46;;;;;;;4.32;2.85;;;;;;;;;;5155934;27;20201;-68
2023/07/12 03:44:12;;;;;;;5.80;2.33;;;;;;;;;;5152602;27;20239;-68
2023/07/12 03:46:38;;;;;;;3.58;2.35;;;;;;;;;;5152601;27;20265;-68
2023/07/12 03:49:05;;;;;;;3.80;2.17;;;;;;;;;;5155793;27;20401;-68
2023/07/12 03:51:31;;;;;;;7.38;2.30;;;;;;;;;;5156325;27;20205;-68
2023/07/12 03:53:57;;;;;;;7.05;2.80;;;;;;;;;;5153990;27;20201;-68
2023/07/12 03:56:25;;;;;;;6.50;2.80;;;;;;;;;;5152586;27;20243;-68
2023/07/12 03:58:51;;;;;;;3.55;2.50;;;;;;;;;;5153448;27;20220;-67
2023/07/12 04:01:18;;;;;;;5.80;2.78;;;;;;;;;;5119406;27;1051757;-67
2023/07/12 04:03:44;;;;;;;4.30;2.25;;;;;;;;;;5156837;27;20197;-67
2023/07/12 04:06:12;;;;;;;12.10;3.33;;;;;;;;;;5153602;27;20202;-67
2023/07/12 04:08:39;;;;;;;8.07;2.80;;;;;;;;;;5153320;27;20228;-68
2023/07/12 04:11:05;;;;;;;6.93;2.97;;;;;;;;;;5156316;27;20238;-68
2023/07/12 04:13:33;;;;;;;12.65;3.28;;;;;;;;;;5156637;27;20370;-68
2023/07/12 04:16:00;;;;;;;3.13;2.63;;;;;;;;;;5154459;27;20220;-71
2023/07/12 04:18:27;;;;;;;5.00;2.95;;;;;;;;;;5153190;27;20198;-71
2023/07/12 04:20:54;;;;;;;6.70;2.88;;;;;;;;;;5154453;27;20259;-71
2023/07/12 04:23:21;;;;;;;4.28;2.78;;;;;;;;;;5160198;27;20377;-71
2023/07/12 04:25:47;;;;;;;7.82;2.92;;;;;;;;;;5153307;27;20201;-71
2023/07/12 04:28:13;;;;;;;4.28;3.60;;;;;;;;;;5156380;27;20540;-71
2023/07/12 04:30:41;;;;;;;9.70;3.50;;;;;;;;;;5155963;27;20270;-71
2023/07/12 04:33:07;;;;;;;3.63;2.80;;;;;;;;;;5153274;27;20251;-71
2023/07/12 04:35:37;;;;;;;8.60;3.35;;;;;;;;;;5152796;27;20204;-71
2023/07/12 04:38:04;;;;;;;4.68;2.70;;;;;;;;;;5155314;27;20205;-71
2023/07/12 04:40:30;;;;;;;6.32;3.08;;;;;;;;;;5156258;27;20533;-71
2023/07/12 04:42:56;;;;;;;5.45;2.85;;;;;;;;;;5154378;27;20381;-71
2023/07/12 04:45:23;;;;;;;5.13;2.72;;;;;;;;;;5152956;27;20194;-71
2023/07/12 04:47:50;;;;;;;4.80;2.83;;;;;;;;;;5153061;27;20234;-71
2023/07/12 04:50:17;;;;;;;4.38;3.00;;;;;;;;;;5156392;27;20252;-71
2023/07/12 04:52:43;;;;;;;6.82;3.05;;;;;;;;;;5155915;27;20270;-71
2023/07/12 04:55:20;;;;;;;4.25;3.17;;;;;;;;;;5152869;27;20201;-71
2023/07/12 04:57:46;;;;;;;10.77;3.17;;;;;;;;;;5152453;27;20501;-71
2023/07/12 05:00:13;;;;;;;9.55;3.30;;;;;;;;;;5143877;27;20221;-71
2023/07/12 05:02:40;;;;;;;11.07;3.05;;;;;;;;;;5152372;27;20201;-71
2023/07/12 05:05:07;;;;;;;6.65;3.35;;;;;;;;;;5154835;27;20259;-71
2023/07/12 05:07:34;;;;;;;6.05;3.13;;;;;;;;;;5155799;27;20197;-71
2023/07/12 05:10:00;;;;;;;7.25;3.20;;;;;;;;;;5153884;27;20234;-71
2023/07/12 05:12:27;;;;;;;5.78;2.80;;;;;;;;;;5152267;27;20524;-71
2023/07/12 05:14:53;;;;;;;8.75;3.33;;;;;;;;;;5152616;27;20194;-71
2023/07/12 05:17:19;;;;;;;3.42;3.10;;;;;;;;;;5155835;27;20200;-71
2023/07/12 05:19:45;;;;;;;6.13;3.30;;;;;;;;;;5155571;27;20217;-71
2023/07/12 05:22:13;;;;;;;6.28;3.63;;;;;;;;;;5152000;27;20318;-71
2023/07/12 05:24:40;;;;;;;6.05;2.85;;;;;;;;;;5151843;27;20231;-71
2023/07/12 05:27:06;;;;;;;6.43;3.50;;;;;;;;;;5154325;27;20266;-71
2023/07/12 05:29:33;;;;;;;9.45;3.53;;;;;;;;;;5155710;27;20234;-71
2023/07/12 05:32:00;;;;;;;9.25;3.40;;;;;;;;;;5153892;27;20345;-71
2023/07/12 05:34:26;;;;;;;5.57;3.35;;;;;;;;;;5151867;27;20194;-71
2023/07/12 05:36:52;;;;;;;8.27;3.33;;;;;;;;;;5152165;27;20194;-72
2023/07/12 05:39:20;;;;;;;7.20;3.75;;;;;;;;;;5155194;27;20420;-71
2023/07/12 05:41:46;;;;;;;13.90;3.58;;;;;;;;;;5155747;27;20508;-71
2023/07/12 05:44:12;;;;;;;10.45;3.75;;;;;;;;;;5151962;27;20417;-71
2023/07/12 05:46:39;;;;;;;6.57;3.25;;;;;;;;;;5151800;27;20197;-71
2023/07/12 05:49:05;;;;;;;7.35;3.90;;;;;;;;;;5153984;27;20190;-71
2023/07/12 05:51:31;;;;;;;8.60;3.80;;;;;;;;;;5155194;27;20197;-71
2023/07/12 05:53:57;;;;;;;8.57;3.55;;;;;;;;;;5153980;27;20198;-71
2023/07/12 05:56:25;;;;;;;6.78;3.50;;;;;;;;;;5151957;27;20194;-71
2023/07/12 05:58:51;;;;;;;8.40;3.55;;;;;;;;;;5151815;27;20194;-71
2023/07/12 06:01:19;;;;;;;10.57;3.60;;;;;;;;;;5155137;27;20242;-71
2023/07/12 06:03:46;;;;;;;9.55;3.35;;;;;;;;;;5156112;27;20239;-72
2023/07/12 06:06:12;;;;;;;8.73;3.47;;;;;;;;;;5154336;27;20200;-59
2023/07/12 06:08:38;;;;;;;8.75;3.40;;;;;;;;;;5155203;27;20192;-59
2023/07/12 06:11:05;;;;;;;9.23;3.42;;;;;;;;;;5153135;27;20497;-60
2023/07/12 06:13:33;;;;;;;10.90;3.85;;;;;;;;;;5151389;27;20193;-59
2023/07/12 06:15:59;;;;;;;10.93;3.63;;;;;;;;;;5152556;27;20201;-59
2023/07/12 06:18:25;;;;;;;6.75;3.63;;;;;;;;;;5154649;27;20196;-57
2023/07/12 06:20:55;;;;;;;7.15;3.53;;;;;;;;;;5141176;27;20221;-57
2023/07/12 06:23:21;;;;;;;4.13;3.60;;;;;;;;;;5137559;27;20210;-56
2023/07/12 06:25:48;;;;;;;6.82;3.20;;;;;;;;;;5153598;27;20495;-57
2023/07/12 06:28:14;;;;;;;8.95;3.55;;;;;;;;;;5137807;27;20292;-57
2023/07/12 06:30:42;;;;;;;11.77;3.50;;;;;;;;;;5137535;27;20221;-57
2023/07/12 06:33:08;;;;;;;7.50;3.83;;;;;;;;;;5143173;27;20206;-58
2023/07/12 06:35:35;;;;;;;9.25;4.05;;;;;;;;;;5141222;27;20197;-58
2023/07/12 06:38:01;;;;;;;7.25;4.45;;;;;;;;;;5138144;27;20590;-58
2023/07/12 06:40:27;;;;;;;8.82;3.75;;;;;;;;;;5146626;27;20548;-57
2023/07/12 06:42:53;;;;;;;12.65;4.07;;;;;;;;;;5138550;27;20522;-58
2023/07/12 06:45:20;;;;;;;11.88;4.50;;;;;;;;;;5143708;27;20292;-59
2023/07/12 06:47:47;;;;;;;8.35;3.63;;;;;;;;;;5144000;27;20201;-59
2023/07/12 06:50:14;;;;;;;8.70;3.97;;;;;;;;;;5139199;27;20202;-60
2023/07/12 06:52:40;;;;;;;6.18;4.05;;;;;;;;;;5139572;27;20206;-60
2023/07/12 06:55:06;;;;;;;10.02;4.10;;;;;;;;;;5148572;27;20212;-58
2023/07/12 06:57:33;;;;;;;5.25;4.30;;;;;;;;;;5148785;27;20210;-59
2023/07/12 07:00:00;;;;;;;9.55;4.55;;;;;;;;;;5148466;27;20473;-57
2023/07/12 07:02:26;;;;;;;8.68;4.55;;;;;;;;;;5141515;27;20432;-58
2023/07/12 07:04:53;;;;;;;20.02;5.03;;;;;;;;;;5142782;27;20439;-59
2023/07/12 07:07:20;;;;;;;25.95;5.13;;;;;;;;;;5140028;27;20205;-59
2023/07/12 07:09:46;;;;;;;12.38;4.43;;;;;;;;;;5152138;27;20435;-59
2023/07/12 07:12:13;;;;;;;11.07;4.90;;;;;;;;;;5149274;27;20403;-60
2023/07/12 07:14:39;;;;;;;15.25;5.00;;;;;;;;;;5151686;27;20209;-60
2023/07/12 07:17:06;;;;;;;7.63;4.25;;;;;;;;;;5150213;27;20212;-60
2023/07/12 07:19:32;;;;;;;11.02;4.30;;;;;;;;;;5143394;27;20271;-60
2023/07/12 07:22:00;;;;;;;8.90;3.95;;;;;;;;;;5140201;27;20225;-60
2023/07/12 07:24:26;;;;;;;12.15;4.82;;;;;;;;;;5148429;27;20233;-60
2023/07/12 07:26:52;;;;;;;8.75;4.47;;;;;;;;;;5148726;27;20530;-59
2023/07/12 07:29:19;;;;;;;4.60;4.07;;;;;;;;;;5140540;27;20512;-60
2023/07/12 07:31:45;;;;;;;8.35;4.35;;;;;;;;;;5139192;27;20246;-59
2023/07/12 07:34:11;;;;;;;9.77;4.22;;;;;;;;;;5146348;27;20206;-59
2023/07/12 07:36:37;;;;;;;6.85;4.90;;;;;;;;;;5140574;27;20448;-60
2023/07/12 07:39:05;;;;;;;7.35;3.97;;;;;;;;;;5143459;27;20443;-60
2023/07/12 07:41:32;;;;;;;6.78;4.50;;;;;;;;;;5143611;27;20217;-59
2023/07/12 07:43:58;;;;;;;12.05;4.10;;;;;;;;;;5148002;27;20351;-59
2023/07/12 07:46:24;;;;;;;5.63;4.10;;;;;;;;;;5151117;27;20212;-58
2023/07/12 07:48:51;;;;;;;7.90;4.30;;;;;;;;;;5146487;27;20206;-59
2023/07/12 07:51:17;;;;;;;7.80;4.22;;;;;;;;;;5147711;27;20201;-57
2023/07/12 07:53:43;;;;;;;11.57;4.18;;;;;;;;;;5142907;27;20397;-58
2023/07/12 07:56:11;;;;;;;5.10;3.50;;;;;;;;;;5147642;27;20213;-59
2023/07/12 07:58:37;;;;;;;7.32;3.88;;;;;;;;;;5147233;27;20206;-59
2023/07/12 08:01:04;;;;;;;5.90;4.05;;;;;;;;;;5148158;27;20222;-59
2023/07/12 08:03:30;;;;;;;5.80;3.72;;;;;;;;;;5148934;27;20205;-58
2023/07/12 08:06:00;;;;;;;8.45;4.20;;;;;;;;;;5140861;27;20540;-59
2023/07/12 08:08:28;;;;;;;10.93;4.35;;;;;;;;;;5139906;27;20206;-58
2023/07/12 08:10:55;;;;;;;7.90;4.00;;;;;;;;;;5148175;27;20206;-58
2023/07/12 08:13:22;;;;;;;7.72;4.57;;;;;;;;;;5147296;27;20205;-59
2023/07/12 08:15:49;;;;;;;8.63;4.40;;;;;;;;;;5151476;27;20250;-59
2023/07/12 08:18:15;;;;;;;6.20;4.30;;;;;;;;;;5148591;27;20468;-58
2023/07/12 08:20:41;;;;;;;7.32;4.63;;;;;;;;;;5140561;27;20222;-57
2023/07/12 08:23:08;;;;;;;9.20;4.20;;;;;;;;;;5145489;27;20277;-58
2023/07/12 08:25:34;;;;;;;10.77;4.57;;;;;;;;;;5147381;27;20213;-58
2023/07/12 08:28:00;;;;;;;3.92;3.53;;;;;;;;;;5142050;27;20226;-57
2023/07/12 08:30:28;;;;;;;4.30;3.90;;;;;;;;;;5141744;27;20206;-69
2023/07/12 08:32:54;;;;;;;5.82;3.40;;;;;;;;;;5146810;27;20206;-69
2023/07/12 08:35:20;;;;;;;8.40;3.75;;;;;;;;;;5138941;27;20247;-69
2023/07/12 08:37:47;;;;;;;4.18;3.80;;;;;;;;;;5147708;27;20556;-69
2023/07/12 08:40:14;;;;;;;8.50;3.42;;;;;;;;;;5147243;27;20232;-70
2023/07/12 08:42:42;;;;;;;3.53;3.22;;;;;;;;;;5139053;27;20228;-69
2023/07/12 08:45:15;;;;;;;5.97;3.42;;;;;;;;;;5147843;27;20255;-70
2023/07/12 08:47:44;;;;;;;6.45;3.40;;;;;;;;;;5144122;27;20546;-68
2023/07/12 08:50:12;;;;;;;8.38;3.75;;;;;;;;;;5141716;27;20233;-68
2023/07/12 08:52:40;;;;;;;6.10;3.50;;;;;;;;;;5146415;27;20247;-68
2023/07/12 08:55:10;;;;;;;4.18;3.22;;;;;;;;;;5142939;27;20490;-68
2023/07/12 08:57:38;;;;;;;5.32;3.75;;;;;;;;;;5144947;27;21036;-68
2023/07/12 09:00:06;;;;;;;9.07;3.85;;;;;;;;;;5146284;27;20221;-68
2023/07/12 09:02:33;;;;;;;5.63;3.25;;;;;;;;;;5146296;27;20719;-68
2023/07/12 09:05:05;;;;;;;8.65;3.20;;;;;;;;;;5148882;27;20276;-68
2023/07/12 09:07:33;;;;;;;5.05;3.38;;;;;;;;;;5142398;27;20236;-68
2023/07/12 09:10:00;;;;;;;5.63;3.03;;;;;;;;;;5150885;27;20209;-68
2023/07/12 09:12:28;;;;;;;7.63;3.30;;;;;;;;;;5148470;27;20209;-68
2023/07/12 09:14:54;;;;;;;8.43;3.13;;;;;;;;;;5144872;27;20624;-68
2023/07/12 09:17:25;;;;;;;9.57;3.17;;;;;;;;;;5141541;27;20210;-70
2023/07/12 09:19:52;;;;;;;7.55;3.45;;;;;;;;;;5146654;27;20209;-69
2023/07/12 09:22:20;;;;;;;4.75;3.25;;;;;;;;;;5139179;27;20209;-68
2023/07/12 09:24:47;;;;;;;3.50;3.20;;;;;;;;;;5145076;27;20273;-68
2023/07/12 09:27:15;;;;;;;6.70;3.67;;;;;;;;;;5145967;27;20225;-69
2023/07/12 09:29:41;;;;;;;11.55;3.35;;;;;;;;;;5145950;27;20212;-69
2023/07/12 09:32:25;;;;;;;3.63;2.70;;;;;;;;;;5146310;27;20213;-69
2023/07/12 09:34:54;;;;;;;5.20;2.60;;;;;;;;;;5142138;27;20254;-69
2023/07/12 09:37:22;;;;;;;5.20;2.67;;;;;;;;;;5146611;27;20205;-69
2023/07/12 09:39:54;;;;;;;7.45;2.85;;;;;;;;;;5138162;27;20463;-69
2023/07/12 09:42:20;;;;;;;6.45;2.55;;;;;;;;;;5147270;27;20222;-68
2023/07/12 09:44:48;;;;;;;3.08;2.40;;;;;;;;;;5143629;27;20425;-69
2023/07/12 09:47:23;;;;;;;2.85;2.28;;;;;;;;;;5147490;27;20216;-69
2023/07/12 09:49:52;;;;;;;3.88;2.80;;;;;;;;;;5139414;27;20242;-69
2023/07/12 09:52:24;;;;;;;5.47;2.30;;;;;;;;;;5145389;27;20629;-68
2023/07/12 09:54:54;;;;;;;5.47;2.40;;;;;;;;;;5145623;27;20246;-68
2023/07/12 09:57:20;;;;;;;4.20;2.53;;;;;;;;;;5142151;27;20393;-67
2023/07/12 09:59:53;;;;;;;3.47;2.33;;;;;;;;;;5142398;27;20208;-68
2023/07/12 10:02:22;;;;;;;3.80;2.30;;;;;;;;;;5144687;27;20221;-68
2023/07/12 10:04:50;;;;;;;4.90;2.30;;;;;;;;;;5140177;27;20377;-69
2023/07/12 10:07:21;;;;;;;5.10;2.38;;;;;;;;;;5145237;27;20251;-69
2023/07/12 10:09:48;;;;;;;5.32;2.75;;;;;;;;;;5141482;27;20247;-69
2023/07/12 10:12:23;;;;;;;4.15;2.50;;;;;;;;;;5146160;27;20548;-69
2023/07/12 10:14:50;;;;;;;2.70;2.50;;;;;;;;;;5142321;27;20537;-69
2023/07/12 10:17:18;;;;;;;2.83;2.63;;;;;;;;;;5149413;27;20402;-69
2023/07/12 10:19:47;;;;;;;5.03;2.20;;;;;;;;;;5144487;27;20382;-68
2023/07/12 10:22:15;;;;;;;2.20;2.10;;;;;;;;;;5146365;27;20225;-68
2023/07/12 10:24:44;;;;;;;5.22;2.85;;;;;;;;;;5144825;27;20205;-68
2023/07/12 10:27:15;;;;;;;3.03;2.83;;;;;;;;;;5148042;27;20571;-68
2023/07/12 10:29:44;;;;;;;3.92;2.90;;;;;;;;;;5139384;27;20719;-68
2023/07/12 10:32:16;;;;;;;2.88;2.55;;;;;;;;;;5150090;27;20438;-68
2023/07/12 10:34:44;;;;;;;3.83;2.83;;;;;;;;;;5142087;27;20521;-68
2023/07/12 10:37:13;;;;;;;2.92;2.70;;;;;;;;;;5141626;27;20216;-68
2023/07/12 10:39:40;;;;;;;5.70;2.47;;;;;;;;;;5145330;27;20218;-68
2023/07/12 10:42:09;;;;;;;3.95;2.53;;;;;;;;;;5147801;27;20229;-68
2023/07/12 10:44:38;;;;;;;5.13;2.40;;;;;;;;;;5141704;27;20293;-68
2023/07/12 10:47:08;;;;;;;6.65;3.05;;;;;;;;;;5148853;27;20297;-68
2023/07/12 10:49:41;;;;;;;4.75;3.00;;;;;;;;;;5133684;27;20210;-68
2023/07/12 10:52:16;;;;;;;3.65;2.38;;;;;;;;;;5148730;27;20457;-68
2023/07/12 10:54:51;;;;;;;9.30;2.90;;;;;;;;;;5145282;27;20200;-68
2023/07/12 10:57:26;;;;;;;7.05;2.90;;;;;;;;;;5141664;27;20229;-68
2023/07/12 10:59:59;;;;;;;3.10;2.90;;;;;;;;;;5139388;27;20216;-69
2023/07/12 11:02:29;;;;;;;7.80;3.08;;;;;;;;;;5140629;27;20217;-68
2023/07/12 11:04:55;;;;;;;5.43;3.20;;;;;;;;;;5142561;27;20537;-68
2023/07/12 11:07:34;;;;;;;4.53;2.75;;;;;;;;;;5150455;27;20228;-68
2023/07/12 11:10:16;;;;;;;8.60;2.70;;;;;;;;;;5144856;27;20216;-68
2023/07/12 11:12:47;;;;;;;4.18;3.00;;;;;;;;;;5135569;27;20698;-68
2023/07/12 11:15:17;;;;;;;3.97;3.28;;;;;;;;;;5143575;27;20430;-68
2023/07/12 11:17:50;;;;;;;5.63;3.13;;;;;;;;;;5145589;27;20205;-66
2023/07/12 11:20:21;;;;;;;7.53;3.42;;;;;;;;;;5143841;27;20298;-67
2023/07/12 11:22:48;;;;;;;4.25;3.20;;;;;;;;;;5140339;27;20294;-69
2023/07/12 11:25:22;;;;;;;6.82;3.33;;;;;;;;;;5144215;27;20247;-68
2023/07/12 11:27:56;;;;;;;3.97;3.67;;;;;;;;;;5147976;27;20228;-68
2023/07/12 11:30:26;;;;;;;10.40;3.53;;;;;;;;;;5140995;27;20263;-68
2023/07/12 11:32:57;;;;;;;10.25;3.67;;;;;;;;;;5150289;27;20197;-68
2023/07/12 11:35:30;;;;;;;5.28;3.25;;;;;;;;;;5146988;27;20216;-68
2023/07/12 11:37:57;;;;;;;4.75;3.38;;;;;;;;;;5148913;27;20228;-68
2023/07/12 11:40:24;;;;;;;6.00;3.80;;;;;;;;;;5142334;27;20210;-68
2023/07/12 11:42:50;;;;;;;4.18;3.40;;;;;;;;;;5143135;27;20290;-68
2023/07/12 11:45:19;;;;;;;3.38;3.00;;;;;;;;;;5140477;27;20471;-68
2023/07/12 11:47:48;;;;;;;5.20;3.40;;;;;;;;;;5145313;27;20209;-68
2023/07/12 11:50:20;;;;;;;3.70;3.38;;;;;;;;;;5141762;27;20205;-68
2023/07/12 11:52:47;;;;;;;6.55;3.65;;;;;;;;;;5150781;27;20224;-68
2023/07/12 11:55:17;;;;;;;8.63;3.80;;;;;;;;;;5138698;27;20245;-69
2023/07/12 11:57:44;;;;;;;6.10;3.40;;;;;;;;;;5139578;27;20209;-68
2023/07/12 12:00:15;;;;;;;5.78;3.60;;;;;;;;;;5138355;27;20217;-68
2023/07/12 12:02:41;;;;;;;4.35;3.80;;;;;;;;;;5138856;27;20431;-68
2023/07/12 12:05:14;;;;;;;6.85;3.92;;;;;;;;;;5143045;27;20509;-68
2023/07/12 12:07:42;;;;;;;4.45;3.35;;;;;;;;;;5141637;27;20235;-68
2023/07/12 12:10:16;;;;;;;4.03;3.00;;;;;;;;;;5143890;27;20533;-68
2023/07/12 12:12:42;;;;;;;4.95;3.38;;;;;;;;;;5143919;27;20201;-69
2023/07/12 12:15:17;;;;;;;5.32;3.47;;;;;;;;;;5146551;27;20213;-69
2023/07/12 12:17:44;;;;;;;7.18;3.17;;;;;;;;;;5135620;27;20539;-69
2023/07/12 12:20:14;;;;;;;3.42;3.10;;;;;;;;;;5140933;27;20238;-69
2023/07/12 12:22:42;;;;;;;5.15;3.40;;;;;;;;;;5139659;27;20220;-69
2023/07/12 12:25:16;;;;;;;6.50;3.33;;;;;;;;;;5144313;27;20529;-69
2023/07/12 12:27:43;;;;;;;5.07;3.30;;;;;;;;;;5145784;27;20426;-68
2023/07/12 12:30:18;;;;;;;3.28;2.97;;;;;;;;;;5143314;27;20288;-68
2023/07/12 12:32:55;;;;;;;5.80;3.22;;;;;;;;;;5136635;27;20267;-68
2023/07/12 12:35:21;;;;;;;4.15;2.97;;;;;;;;;;5139906;27;20210;-68
2023/07/12 12:37:55;;;;;;;4.07;2.95;;;;;;;;;;5140758;27;20744;-68
2023/07/12 12:40:22;;;;;;;5.25;3.03;;;;;;;;;;5138919;27;20271;-68
2023/07/12 12:42:52;;;;;;;4.88;3.20;;;;;;;;;;5144786;27;20217;-68
2023/07/12 12:45:18;;;;;;;7.60;2.92;;;;;;;;;;5141805;27;20289;-69
2023/07/12 12:47:45;;;;;;;6.43;3.03;;;;;;;;;;5141242;27;20242;-70
2023/07/12 12:50:16;;;;;;;5.35;3.05;;;;;;;;;;5138634;27;20233;-70
2023/07/12 12:52:43;;;;;;;5.00;3.17;;;;;;;;;;5141775;27;20226;-69
2023/07/12 12:55:11;;;;;;;4.78;3.20;;;;;;;;;;5146124;27;20202;-69
2023/07/12 12:57:38;;;;;;;3.85;3.53;;;;;;;;;;5149717;27;20525;-69
2023/07/12 13:00:11;;;;;;;10.30;3.00;;;;;;;;;;5146940;27;20250;-69
2023/07/12 13:02:37;;;;;;;3.20;2.95;;;;;;;;;;5145922;27;20217;-69
2023/07/12 13:05:04;;;;;;;8.73;3.42;;;;;;;;;;5144998;27;20205;-69
2023/07/12 13:07:32;;;;;;;6.53;3.30;;;;;;;;;;5148276;27;20213;-69
2023/07/12 13:09:58;;;;;;;4.53;3.17;;;;;;;;;;5144559;27;20246;-68
2023/07/12 13:12:26;;;;;;;4.65;3.30;;;;;;;;;;5146006;27;20470;-69
2023/07/12 13:14:53;;;;;;;5.47;3.10;;;;;;;;;;5140155;27;20206;-69
2023/07/12 13:17:21;;;;;;;4.25;2.72;;;;;;;;;;5139461;27;20210;-69
2023/07/12 13:19:48;;;;;;;3.15;2.78;;;;;;;;;;5145538;27;20205;-69
2023/07/12 13:22:16;;;;;;;4.50;3.25;;;;;;;;;;5136511;27;20636;-68
2023/07/12 13:24:43;;;;;;;4.65;3.10;;;;;;;;;;5136248;27;20206;-68
2023/07/12 13:27:20;;;;;;;4.65;2.95;;;;;;;;;;5140161;27;20250;-68
2023/07/12 13:29:47;;;;;;;4.65;3.05;;;;;;;;;;5132711;27;20260;-68
2023/07/12 13:32:14;;;;;;;6.35;3.30;;;;;;;;;;5138482;27;20201;-68
2023/07/12 13:34:40;;;;;;;7.07;3.05;;;;;;;;;;5140420;27;20201;-68
2023/07/12 13:37:12;;;;;;;3.20;2.90;;;;;;;;;;5136105;27;20205;-68
2023/07/12 13:39:38;;;;;;;3.88;3.17;;;;;;;;;;5145625;27;20520;-69
2023/07/12 13:42:05;;;;;;;7.43;3.35;;;;;;;;;;5146548;27;20591;-69
2023/07/12 13:44:32;;;;;;;7.50;3.40;;;;;;;;;;5138879;27;20295;-69
2023/07/12 13:46:59;;;;;;;9.68;3.70;;;;;;;;;;5145411;27;20205;-68
2023/07/12 13:49:25;;;;;;;3.15;2.88;;;;;;;;;;5139152;27;20536;-69
2023/07/12 13:51:52;;;;;;;5.90;3.00;;;;;;;;;;5145264;27;20202;-69
2023/07/12 13:54:19;;;;;;;3.83;3.20;;;;;;;;;;5139257;27;20467;-69
2023/07/12 13:56:46;;;;;;;7.47;3.28;;;;;;;;;;5147956;27;20272;-69
2023/07/12 13:59:12;;;;;;;6.22;3.00;;;;;;;;;;5144340;27;20532;-69
2023/07/12 14:01:38;;;;;;;3.47;3.17;;;;;;;;;;5145804;27;20225;-69
2023/07/12 14:04:10;;;;;;;3.30;2.97;;;;;;;;;;5146676;27;20594;-69
2023/07/12 14:06:36;;;;;;;6.72;3.30;;;;;;;;;;5143452;27;20201;-69
2023/07/12 14:09:02;;;;;;;7.18;2.88;;;;;;;;;;5150203;27;20205;-69
2023/07/12 14:11:30;;;;;;;5.95;3.00;;;;;;;;;;5147159;27;20217;-69
2023/07/12 14:13:57;;;;;;;3.88;2.90;;;;;;;;;;5149007;27;20205;-70
2023/07/12 14:16:24;;;;;;;5.50;3.05;;;;;;;;;;5143786;27;20217;-69
2023/07/12 14:18:50;;;;;;;3.97;3.20;;;;;;;;;;5150448;27;20250;-69
2023/07/12 14:21:20;;;;;;;6.70;3.17;;;;;;;;;;5140729;27;20276;-69
2023/07/12 14:23:47;;;;;;;3.50;3.17;;;;;;;;;;5141339;27;20308;-69
2023/07/12 14:26:17;;;;;;;5.70;3.25;;;;;;;;;;5148633;27;20246;-69
2023/07/12 14:28:43;;;;;;;5.43;3.20;;;;;;;;;;5144694;27;20224;-69
2023/07/12 14:31:12;;;;;;;4.20;2.70;;;;;;;;;;5157667;27;20201;-69
2023/07/12 14:33:39;;;;;;;7.22;3.28;;;;;;;;;;5155979;27;20238;-69
2023/07/12 14:36:05;;;;;;;3.97;2.80;;;;;;;;;;5155539;27;20406;-69
2023/07/12 14:38:33;;;;;;;4.95;2.78;;;;;;;;;;5156873;27;20198;-69
2023/07/12 14:40:59;;;;;;;6.60;3.15;;;;;;;;;;5158726;27;20193;-68
2023/07/12 14:43:25;;;;;;;6.45;2.58;;;;;;;;;;5157563;27;20220;-68
2023/07/12 14:45:52;;;;;;;3.33;2.70;;;;;;;;;;5155071;27;20194;-68